sensor_id;sensor_type;location;lat;lon;timestamp;temperature;humidity
25753;DHT22;13600;50.816;4.416;2023-05-07T00:01:49;18.80;99.90
25753;DHT22;13600;50.816;4.416;2023-05-07T00:04:15;18.80;99.90
25753;DHT22;13600;50.816;4.416;2023-05-07T00:06:40;18.70;99.90
25753;DHT22;13600;50.816;4.416;2023-05-07T00:09:06;18.70;99.90
25753;DHT22;13600;50.816;4.416;2023-05-07T00:11:32;18.70;99.90
25753;DHT22;13600;50.816;4.416;2023-05-07T00:13:57;18.80;99.90
25753;DHT22;13600;50.816;4.416;2023-05-07T00:16:23;18.90;99.90
25753;DHT22;13600;50.816;4.416;2023-05-07T00:18:49;18.80;99.90
25753;DHT22;13600;50.816;4.416;2023-05-07T00:21:14;18.90;99.90
25753;DHT22;13600;50.816;4.416;2023-05-07T00:23:40;18.80;99.90
25753;DHT22;13600;50.816;4.416;2023-05-07T00:26:05;18.70;99.90
25753;DHT22;13600;50.816;4.416;2023-05-07T00:28:31;18.60;99.90
25753;DHT22;13600;50.816;4.416;2023-05-07T00:30:56;18.60;99.90
25753;DHT22;13600;50.816;4.416;2023-05-07T00:33:22;18.50;99.90
25753;DHT22;13600;50.816;4.416;2023-05-07T00:35:48;18.40;99.90
25753;DHT22;13600;50.816;4.416;2023-05-07T00:38:13;18.40;99.90
25753;DHT22;13600;50.816;4.416;2023-05-07T00:40:39;18.30;99.90
25753;DHT22;13600;50.816;4.416;2023-05-07T00:43:05;18.30;99.90
25753;DHT22;13600;50.816;4.416;2023-05-07T00:45:32;18.20;99.90
25753;DHT22;13600;50.816;4.416;2023-05-07T00:47:59;18.20;99.90
25753;DHT22;13600;50.816;4.416;2023-05-07T00:50:25;18.30;99.90
25753;DHT22;13600;50.816;4.416;2023-05-07T00:52:51;18.40;99.90
25753;DHT22;13600;50.816;4.416;2023-05-07T00:55:16;18.60;99.90
25753;DHT22;13600;50.816;4.416;2023-05-07T00:57:42;18.80;99.90
25753;DHT22;13600;50.816;4.416;2023-05-07T01:00:08;18.70;99.90
25753;DHT22;13600;50.816;4.416;2023-05-07T01:02:35;18.60;99.90
25753;DHT22;13600;50.816;4.416;2023-05-07T01:05:01;18.50;99.90
25753;DHT22;13600;50.816;4.416;2023-05-07T01:07:28;18.40;99.90
25753;DHT22;13600;50.816;4.416;2023-05-07T01:09:55;18.40;99.90
25753;DHT22;13600;50.816;4.416;2023-05-07T01:12:20;18.40;99.90
25753;DHT22;13600;50.816;4.416;2023-05-07T01:14:46;18.40;99.90
25753;DHT22;13600;50.816;4.416;2023-05-07T01:17:14;18.30;99.90
25753;DHT22;13600;50.816;4.416;2023-05-07T01:19:40;18.40;99.90
25753;DHT22;13600;50.816;4.416;2023-05-07T01:22:08;18.40;99.90
25753;DHT22;13600;50.816;4.416;2023-05-07T01:24:36;18.40;99.90
25753;DHT22;13600;50.816;4.416;2023-05-07T01:27:02;18.20;99.90
25753;DHT22;13600;50.816;4.416;2023-05-07T01:29:27;18.20;99.90
25753;DHT22;13600;50.816;4.416;2023-05-07T01:31:54;18.10;99.90
25753;DHT22;13600;50.816;4.416;2023-05-07T01:34:20;18.20;99.90
25753;DHT22;13600;50.816;4.416;2023-05-07T01:36:46;18.10;99.90
25753;DHT22;13600;50.816;4.416;2023-05-07T01:39:12;18.10;99.90
25753;DHT22;13600;50.816;4.416;2023-05-07T01:41:38;18.00;99.90
25753;DHT22;13600;50.816;4.416;2023-05-07T01:44:03;18.10;99.90
25753;DHT22;13600;50.816;4.416;2023-05-07T01:46:30;18.20;99.90
25753;DHT22;13600;50.816;4.416;2023-05-07T01:48:56;18.30;99.90
25753;DHT22;13600;50.816;4.416;2023-05-07T01:51:22;18.30;99.90
25753;DHT22;13600;50.816;4.416;2023-05-07T01:53:48;18.30;99.90
25753;DHT22;13600;50.816;4.416;2023-05-07T01:56:19;18.30;99.90
25753;DHT22;13600;50.816;4.416;2023-05-07T01:58:45;18.20;99.90
25753;DHT22;13600;50.816;4.416;2023-05-07T02:01:14;18.10;99.90
25753;DHT22;13600;50.816;4.416;2023-05-07T02:03:39;18.10;99.90
25753;DHT22;13600;50.816;4.416;2023-05-07T02:06:05;18.00;99.90
25753;DHT22;13600;50.816;4.416;2023-05-07T02:08:31;18.00;99.90
25753;DHT22;13600;50.816;4.416;2023-05-07T02:10:56;17.90;99.90
25753;DHT22;13600;50.816;4.416;2023-05-07T02:13:22;17.90;99.90
25753;DHT22;13600;50.816;4.416;2023-05-07T02:15:49;17.90;99.90
25753;DHT22;13600;50.816;4.416;2023-05-07T02:18:16;18.20;99.90
25753;DHT22;13600;50.816;4.416;2023-05-07T02:20:42;18.30;99.90
25753;DHT22;13600;50.816;4.416;2023-05-07T02:23:07;18.20;99.90
25753;DHT22;13600;50.816;4.416;2023-05-07T02:25:33;18.00;99.90
25753;DHT22;13600;50.816;4.416;2023-05-07T02:27:59;17.80;99.90
25753;DHT22;13600;50.816;4.416;2023-05-07T02:30:24;17.80;99.90
25753;DHT22;13600;50.816;4.416;2023-05-07T02:32:50;17.70;99.90
25753;DHT22;13600;50.816;4.416;2023-05-07T02:35:16;17.60;99.90
25753;DHT22;13600;50.816;4.416;2023-05-07T02:37:41;17.50;99.90
25753;DHT22;13600;50.816;4.416;2023-05-07T02:40:07;17.40;99.90
25753;DHT22;13600;50.816;4.416;2023-05-07T02:42:33;17.30;99.90
25753;DHT22;13600;50.816;4.416;2023-05-07T02:44:58;17.30;99.90
25753;DHT22;13600;50.816;4.416;2023-05-07T02:47:24;17.30;99.90
25753;DHT22;13600;50.816;4.416;2023-05-07T02:49:52;17.40;99.90
25753;DHT22;13600;50.816;4.416;2023-05-07T02:52:18;17.40;99.90
25753;DHT22;13600;50.816;4.416;2023-05-07T02:54:43;17.30;99.90
25753;DHT22;13600;50.816;4.416;2023-05-07T02:57:09;17.30;99.90
25753;DHT22;13600;50.816;4.416;2023-05-07T02:59:34;17.30;99.90
25753;DHT22;13600;50.816;4.416;2023-05-07T03:02:01;17.40;99.90
25753;DHT22;13600;50.816;4.416;2023-05-07T03:04:26;17.50;99.90
25753;DHT22;13600;50.816;4.416;2023-05-07T03:06:52;17.40;99.90
25753;DHT22;13600;50.816;4.416;2023-05-07T03:09:17;17.40;99.90
25753;DHT22;13600;50.816;4.416;2023-05-07T03:11:43;17.30;99.90
25753;DHT22;13600;50.816;4.416;2023-05-07T03:14:08;17.40;99.90
25753;DHT22;13600;50.816;4.416;2023-05-07T03:16:34;17.50;99.90
25753;DHT22;13600;50.816;4.416;2023-05-07T03:19:00;17.40;99.90
25753;DHT22;13600;50.816;4.416;2023-05-07T03:21:25;17.40;99.90
25753;DHT22;13600;50.816;4.416;2023-05-07T03:23:51;17.40;99.90
25753;DHT22;13600;50.816;4.416;2023-05-07T03:26:17;17.40;99.90
25753;DHT22;13600;50.816;4.416;2023-05-07T03:28:42;17.50;99.90
25753;DHT22;13600;50.816;4.416;2023-05-07T03:31:08;17.50;99.90
25753;DHT22;13600;50.816;4.416;2023-05-07T03:33:33;17.40;99.90
25753;DHT22;13600;50.816;4.416;2023-05-07T03:36:00;17.40;99.90
25753;DHT22;13600;50.816;4.416;2023-05-07T03:38:26;17.30;99.90
25753;DHT22;13600;50.816;4.416;2023-05-07T03:40:51;17.30;99.90
25753;DHT22;13600;50.816;4.416;2023-05-07T03:43:17;17.40;99.90
25753;DHT22;13600;50.816;4.416;2023-05-07T03:45:42;17.50;99.90
25753;DHT22;13600;50.816;4.416;2023-05-07T03:48:08;17.50;99.90
25753;DHT22;13600;50.816;4.416;2023-05-07T03:50:33;17.60;99.90
25753;DHT22;13600;50.816;4.416;2023-05-07T03:52:59;17.80;99.90
25753;DHT22;13600;50.816;4.416;2023-05-07T03:55:25;18.00;99.90
25753;DHT22;13600;50.816;4.416;2023-05-07T03:57:50;17.90;99.90
25753;DHT22;13600;50.816;4.416;2023-05-07T04:00:17;17.80;99.90
25753;DHT22;13600;50.816;4.416;2023-05-07T04:02:42;17.70;99.90
25753;DHT22;13600;50.816;4.416;2023-05-07T04:05:08;17.80;99.90
25753;DHT22;13600;50.816;4.416;2023-05-07T04:07:34;17.90;99.90
25753;DHT22;13600;50.816;4.416;2023-05-07T04:10:00;17.90;99.90
25753;DHT22;13600;50.816;4.416;2023-05-07T04:12:25;17.90;99.90
25753;DHT22;13600;50.816;4.416;2023-05-07T04:14:51;17.80;99.90
25753;DHT22;13600;50.816;4.416;2023-05-07T04:17:16;17.80;99.90
25753;DHT22;13600;50.816;4.416;2023-05-07T04:19:42;17.80;99.90
25753;DHT22;13600;50.816;4.416;2023-05-07T04:22:10;17.70;99.90
25753;DHT22;13600;50.816;4.416;2023-05-07T04:24:36;17.70;99.90
25753;DHT22;13600;50.816;4.416;2023-05-07T04:27:02;17.60;99.90
25753;DHT22;13600;50.816;4.416;2023-05-07T04:29:28;17.70;99.90
25753;DHT22;13600;50.816;4.416;2023-05-07T04:31:53;17.70;99.90
25753;DHT22;13600;50.816;4.416;2023-05-07T04:34:21;17.50;99.90
25753;DHT22;13600;50.816;4.416;2023-05-07T04:36:47;17.50;99.90
25753;DHT22;13600;50.816;4.416;2023-05-07T04:39:13;17.50;99.90
25753;DHT22;13600;50.816;4.416;2023-05-07T04:41:39;17.40;99.90
25753;DHT22;13600;50.816;4.416;2023-05-07T04:44:04;17.50;99.90
25753;DHT22;13600;50.816;4.416;2023-05-07T04:46:31;17.50;99.90
25753;DHT22;13600;50.816;4.416;2023-05-07T04:48:56;17.50;99.90
25753;DHT22;13600;50.816;4.416;2023-05-07T04:51:22;17.50;99.90
25753;DHT22;13600;50.816;4.416;2023-05-07T04:53:48;17.50;99.90
25753;DHT22;13600;50.816;4.416;2023-05-07T04:56:14;17.60;99.90
25753;DHT22;13600;50.816;4.416;2023-05-07T04:58:39;17.80;99.90
25753;DHT22;13600;50.816;4.416;2023-05-07T05:01:05;17.90;99.90
25753;DHT22;13600;50.816;4.416;2023-05-07T05:03:31;17.90;99.90
25753;DHT22;13600;50.816;4.416;2023-05-07T05:05:56;17.90;99.90
25753;DHT22;13600;50.816;4.416;2023-05-07T05:08:24;17.90;99.90
25753;DHT22;13600;50.816;4.416;2023-05-07T05:10:50;17.80;99.90
25753;DHT22;13600;50.816;4.416;2023-05-07T05:13:16;17.80;99.90
25753;DHT22;13600;50.816;4.416;2023-05-07T05:15:41;17.90;99.90
25753;DHT22;13600;50.816;4.416;2023-05-07T05:18:07;18.00;99.90
25753;DHT22;13600;50.816;4.416;2023-05-07T05:20:32;18.10;99.90
25753;DHT22;13600;50.816;4.416;2023-05-07T05:22:58;18.20;99.90
25753;DHT22;13600;50.816;4.416;2023-05-07T05:25:23;18.20;99.90
25753;DHT22;13600;50.816;4.416;2023-05-07T05:27:49;18.30;99.90
25753;DHT22;13600;50.816;4.416;2023-05-07T05:30:15;18.40;99.90
25753;DHT22;13600;50.816;4.416;2023-05-07T05:32:40;18.30;99.90
25753;DHT22;13600;50.816;4.416;2023-05-07T05:35:06;18.20;99.90
25753;DHT22;13600;50.816;4.416;2023-05-07T05:37:32;18.30;99.90
25753;DHT22;13600;50.816;4.416;2023-05-07T05:39:57;18.30;99.90
25753;DHT22;13600;50.816;4.416;2023-05-07T05:42:23;18.30;99.90
25753;DHT22;13600;50.816;4.416;2023-05-07T05:44:48;18.40;99.90
25753;DHT22;13600;50.816;4.416;2023-05-07T05:47:14;18.40;99.90
25753;DHT22;13600;50.816;4.416;2023-05-07T05:49:39;18.50;99.90
25753;DHT22;13600;50.816;4.416;2023-05-07T05:52:05;18.70;99.90
25753;DHT22;13600;50.816;4.416;2023-05-07T05:54:31;18.80;99.90
25753;DHT22;13600;50.816;4.416;2023-05-07T05:56:56;18.80;99.90
25753;DHT22;13600;50.816;4.416;2023-05-07T05:59:22;18.80;99.90
25753;DHT22;13600;50.816;4.416;2023-05-07T06:01:48;18.70;99.90
25753;DHT22;13600;50.816;4.416;2023-05-07T06:04:13;18.60;99.90
25753;DHT22;13600;50.816;4.416;2023-05-07T06:06:39;18.60;99.90
25753;DHT22;13600;50.816;4.416;2023-05-07T06:09:04;18.60;99.90
25753;DHT22;13600;50.816;4.416;2023-05-07T06:11:31;18.60;99.90
25753;DHT22;13600;50.816;4.416;2023-05-07T06:13:56;18.30;99.90
25753;DHT22;13600;50.816;4.416;2023-05-07T06:16:22;18.20;99.90
25753;DHT22;13600;50.816;4.416;2023-05-07T06:18:47;18.30;99.90
25753;DHT22;13600;50.816;4.416;2023-05-07T06:21:13;18.20;99.90
25753;DHT22;13600;50.816;4.416;2023-05-07T06:23:40;18.20;99.90
25753;DHT22;13600;50.816;4.416;2023-05-07T06:26:06;18.10;99.90
25753;DHT22;13600;50.816;4.416;2023-05-07T06:28:31;18.10;99.90
25753;DHT22;13600;50.816;4.416;2023-05-07T06:31:16;18.00;99.90
25753;DHT22;13600;50.816;4.416;2023-05-07T06:33:43;17.90;99.90
25753;DHT22;13600;50.816;4.416;2023-05-07T06:36:09;17.90;99.90
25753;DHT22;13600;50.816;4.416;2023-05-07T06:38:34;18.10;99.90
25753;DHT22;13600;50.816;4.416;2023-05-07T06:41:00;18.10;99.90
25753;DHT22;13600;50.816;4.416;2023-05-07T06:43:25;18.00;99.90
25753;DHT22;13600;50.816;4.416;2023-05-07T06:45:51;18.10;99.90
25753;DHT22;13600;50.816;4.416;2023-05-07T06:48:16;18.10;99.90
25753;DHT22;13600;50.816;4.416;2023-05-07T06:50:42;18.00;99.90
25753;DHT22;13600;50.816;4.416;2023-05-07T06:53:07;17.90;99.90
25753;DHT22;13600;50.816;4.416;2023-05-07T06:55:33;17.80;99.90
25753;DHT22;13600;50.816;4.416;2023-05-07T06:57:58;17.70;99.90
25753;DHT22;13600;50.816;4.416;2023-05-07T07:00:26;17.80;99.90
25753;DHT22;13600;50.816;4.416;2023-05-07T07:02:52;17.90;99.90
25753;DHT22;13600;50.816;4.416;2023-05-07T07:05:18;17.90;99.90
25753;DHT22;13600;50.816;4.416;2023-05-07T07:07:43;18.00;99.90
25753;DHT22;13600;50.816;4.416;2023-05-07T07:10:09;17.90;99.90
25753;DHT22;13600;50.816;4.416;2023-05-07T07:12:35;17.80;99.90
25753;DHT22;13600;50.816;4.416;2023-05-07T07:15:00;17.70;99.90
25753;DHT22;13600;50.816;4.416;2023-05-07T07:17:26;17.80;99.90
25753;DHT22;13600;50.816;4.416;2023-05-07T07:19:51;17.80;99.90
25753;DHT22;13600;50.816;4.416;2023-05-07T07:22:17;17.90;99.90
25753;DHT22;13600;50.816;4.416;2023-05-07T07:24:43;18.00;99.90
25753;DHT22;13600;50.816;4.416;2023-05-07T07:27:08;18.10;99.90
25753;DHT22;13600;50.816;4.416;2023-05-07T07:29:34;18.00;99.90
25753;DHT22;13600;50.816;4.416;2023-05-07T07:31:59;18.00;99.90
25753;DHT22;13600;50.816;4.416;2023-05-07T07:34:25;18.10;99.90
25753;DHT22;13600;50.816;4.416;2023-05-07T07:36:50;18.20;99.90
25753;DHT22;13600;50.816;4.416;2023-05-07T07:39:16;18.30;99.90
25753;DHT22;13600;50.816;4.416;2023-05-07T07:41:42;18.20;99.90
25753;DHT22;13600;50.816;4.416;2023-05-07T07:44:07;18.40;99.90
25753;DHT22;13600;50.816;4.416;2023-05-07T07:46:34;18.30;99.90
25753;DHT22;13600;50.816;4.416;2023-05-07T07:49:01;18.30;99.90
25753;DHT22;13600;50.816;4.416;2023-05-07T07:51:27;18.20;99.90
25753;DHT22;13600;50.816;4.416;2023-05-07T07:53:52;18.30;99.90
25753;DHT22;13600;50.816;4.416;2023-05-07T07:56:18;18.30;99.90
25753;DHT22;13600;50.816;4.416;2023-05-07T07:58:43;18.40;99.90
25753;DHT22;13600;50.816;4.416;2023-05-07T08:01:09;18.40;99.90
25753;DHT22;13600;50.816;4.416;2023-05-07T08:03:34;18.30;99.90
25753;DHT22;13600;50.816;4.416;2023-05-07T08:06:00;18.40;99.90
25753;DHT22;13600;50.816;4.416;2023-05-07T08:08:26;18.40;99.90
25753;DHT22;13600;50.816;4.416;2023-05-07T08:10:52;18.30;99.90
25753;DHT22;13600;50.816;4.416;2023-05-07T08:13:17;18.30;99.90
25753;DHT22;13600;50.816;4.416;2023-05-07T08:15:43;18.30;99.90
25753;DHT22;13600;50.816;4.416;2023-05-07T08:18:09;18.30;99.90
25753;DHT22;13600;50.816;4.416;2023-05-07T08:20:34;18.50;99.90
25753;DHT22;13600;50.816;4.416;2023-05-07T08:23:04;18.50;99.90
25753;DHT22;13600;50.816;4.416;2023-05-07T08:25:32;18.50;99.90
25753;DHT22;13600;50.816;4.416;2023-05-07T08:27:58;18.60;99.90
25753;DHT22;13600;50.816;4.416;2023-05-07T08:30:23;18.60;99.90
25753;DHT22;13600;50.816;4.416;2023-05-07T08:32:49;18.60;99.90
25753;DHT22;13600;50.816;4.416;2023-05-07T08:35:14;18.60;99.90
25753;DHT22;13600;50.816;4.416;2023-05-07T08:37:40;18.60;99.90
25753;DHT22;13600;50.816;4.416;2023-05-07T08:40:05;18.70;99.90
25753;DHT22;13600;50.816;4.416;2023-05-07T08:42:31;18.80;99.90
25753;DHT22;13600;50.816;4.416;2023-05-07T08:45:00;18.80;99.90
25753;DHT22;13600;50.816;4.416;2023-05-07T08:47:29;18.80;99.90
25753;DHT22;13600;50.816;4.416;2023-05-07T08:49:56;19.00;99.90
25753;DHT22;13600;50.816;4.416;2023-05-07T08:52:21;19.10;99.90
25753;DHT22;13600;50.816;4.416;2023-05-07T08:54:47;19.30;99.90
25753;DHT22;13600;50.816;4.416;2023-05-07T08:57:13;19.40;99.90
25753;DHT22;13600;50.816;4.416;2023-05-07T08:59:39;19.40;99.90
25753;DHT22;13600;50.816;4.416;2023-05-07T09:02:05;19.40;99.90
25753;DHT22;13600;50.816;4.416;2023-05-07T09:04:32;19.40;99.90
25753;DHT22;13600;50.816;4.416;2023-05-07T09:06:58;19.30;99.90
25753;DHT22;13600;50.816;4.416;2023-05-07T09:09:29;19.50;99.90
25753;DHT22;13600;50.816;4.416;2023-05-07T09:11:57;19.40;99.90
25753;DHT22;13600;50.816;4.416;2023-05-07T09:14:27;19.40;99.90
25753;DHT22;13600;50.816;4.416;2023-05-07T09:16:53;19.40;99.90
25753;DHT22;13600;50.816;4.416;2023-05-07T09:19:26;19.60;99.90
25753;DHT22;13600;50.816;4.416;2023-05-07T09:21:58;19.80;99.90
25753;DHT22;13600;50.816;4.416;2023-05-07T09:24:24;19.70;99.90
25753;DHT22;13600;50.816;4.416;2023-05-07T09:26:50;19.80;99.90
25753;DHT22;13600;50.816;4.416;2023-05-07T09:29:16;19.60;99.90
25753;DHT22;13600;50.816;4.416;2023-05-07T09:31:42;19.70;99.90
25753;DHT22;13600;50.816;4.416;2023-05-07T09:34:08;19.60;99.90
25753;DHT22;13600;50.816;4.416;2023-05-07T09:36:33;19.60;99.90
25753;DHT22;13600;50.816;4.416;2023-05-07T09:39:00;19.70;99.90
25753;DHT22;13600;50.816;4.416;2023-05-07T09:41:25;19.70;99.90
25753;DHT22;13600;50.816;4.416;2023-05-07T09:43:54;19.70;99.90
25753;DHT22;13600;50.816;4.416;2023-05-07T09:46:20;19.90;99.90
25753;DHT22;13600;50.816;4.416;2023-05-07T09:48:50;20.10;99.90
25753;DHT22;13600;50.816;4.416;2023-05-07T09:51:21;20.10;99.90
25753;DHT22;13600;50.816;4.416;2023-05-07T09:53:51;20.10;99.90
25753;DHT22;13600;50.816;4.416;2023-05-07T09:56:17;20.10;99.90
25753;DHT22;13600;50.816;4.416;2023-05-07T09:58:43;20.10;99.90
25753;DHT22;13600;50.816;4.416;2023-05-07T10:01:10;20.10;99.90
25753;DHT22;13600;50.816;4.416;2023-05-07T10:03:37;20.00;99.90
25753;DHT22;13600;50.816;4.416;2023-05-07T10:06:04;20.00;99.90
25753;DHT22;13600;50.816;4.416;2023-05-07T10:08:30;20.10;99.90
25753;DHT22;13600;50.816;4.416;2023-05-07T10:10:56;20.10;99.90
25753;DHT22;13600;50.816;4.416;2023-05-07T10:13:21;20.30;99.90
25753;DHT22;13600;50.816;4.416;2023-05-07T10:15:47;20.20;99.90
25753;DHT22;13600;50.816;4.416;2023-05-07T10:18:13;20.30;99.90
25753;DHT22;13600;50.816;4.416;2023-05-07T10:20:39;20.10;99.90
25753;DHT22;13600;50.816;4.416;2023-05-07T10:23:06;20.10;99.90
25753;DHT22;13600;50.816;4.416;2023-05-07T10:25:32;20.10;99.90
25753;DHT22;13600;50.816;4.416;2023-05-07T10:28:00;20.00;99.90
25753;DHT22;13600;50.816;4.416;2023-05-07T10:30:46;19.80;99.90
25753;DHT22;13600;50.816;4.416;2023-05-07T10:33:15;19.80;99.90
25753;DHT22;13600;50.816;4.416;2023-05-07T10:35:43;20.00;99.90
25753;DHT22;13600;50.816;4.416;2023-05-07T10:38:09;20.10;99.90
25753;DHT22;13600;50.816;4.416;2023-05-07T10:40:35;20.00;99.90
25753;DHT22;13600;50.816;4.416;2023-05-07T10:43:01;19.80;99.90
25753;DHT22;13600;50.816;4.416;2023-05-07T10:45:28;19.80;99.90
25753;DHT22;13600;50.816;4.416;2023-05-07T10:50:31;19.50;99.90
25753;DHT22;13600;50.816;4.416;2023-05-07T10:55:41;19.70;99.90
25753;DHT22;13600;50.816;4.416;2023-05-07T10:58:23;19.80;99.90
25753;DHT22;13600;50.816;4.416;2023-05-07T11:00:49;19.70;99.90
25753;DHT22;13600;50.816;4.416;2023-05-07T11:03:15;19.90;99.90
25753;DHT22;13600;50.816;4.416;2023-05-07T11:05:41;20.00;99.90
25753;DHT22;13600;50.816;4.416;2023-05-07T11:08:07;20.10;99.90
25753;DHT22;13600;50.816;4.416;2023-05-07T11:13:17;20.20;99.90
25753;DHT22;13600;50.816;4.416;2023-05-07T11:15:44;20.30;99.90
25753;DHT22;13600;50.816;4.416;2023-05-07T11:18:11;20.40;99.90
25753;DHT22;13600;50.816;4.416;2023-05-07T11:26:07;20.90;99.90
25753;DHT22;13600;50.816;4.416;2023-05-07T11:28:36;21.00;99.90
25753;DHT22;13600;50.816;4.416;2023-05-07T11:31:03;21.10;99.90
25753;DHT22;13600;50.816;4.416;2023-05-07T11:33:29;21.30;99.90
25753;DHT22;13600;50.816;4.416;2023-05-07T11:35:55;21.40;99.90
25753;DHT22;13600;50.816;4.416;2023-05-07T11:38:21;21.50;99.90
25753;DHT22;13600;50.816;4.416;2023-05-07T11:40:50;21.40;99.90
25753;DHT22;13600;50.816;4.416;2023-05-07T11:43:18;21.40;99.90
25753;DHT22;13600;50.816;4.416;2023-05-07T11:45:45;21.50;99.90
25753;DHT22;13600;50.816;4.416;2023-05-07T11:48:14;21.50;99.90
25753;DHT22;13600;50.816;4.416;2023-05-07T11:50:50;21.60;99.90
25753;DHT22;13600;50.816;4.416;2023-05-07T11:53:16;21.70;99.90
25753;DHT22;13600;50.816;4.416;2023-05-07T11:55:42;21.90;99.90
25753;DHT22;13600;50.816;4.416;2023-05-07T11:58:10;21.90;99.90
25753;DHT22;13600;50.816;4.416;2023-05-07T12:00:35;22.00;99.90
25753;DHT22;13600;50.816;4.416;2023-05-07T12:03:04;22.10;99.90
25753;DHT22;13600;50.816;4.416;2023-05-07T12:05:30;22.30;99.90
25753;DHT22;13600;50.816;4.416;2023-05-07T12:07:58;22.40;99.90
25753;DHT22;13600;50.816;4.416;2023-05-07T12:10:25;22.40;99.90
25753;DHT22;13600;50.816;4.416;2023-05-07T12:12:50;22.30;99.90
25753;DHT22;13600;50.816;4.416;2023-05-07T12:15:16;22.30;99.90
25753;DHT22;13600;50.816;4.416;2023-05-07T12:17:42;22.40;99.90
25753;DHT22;13600;50.816;4.416;2023-05-07T12:20:09;22.30;99.90
25753;DHT22;13600;50.816;4.416;2023-05-07T12:22:35;22.30;99.90
25753;DHT22;13600;50.816;4.416;2023-05-07T12:25:00;22.20;99.90
25753;DHT22;13600;50.816;4.416;2023-05-07T12:27:27;22.20;99.90
25753;DHT22;13600;50.816;4.416;2023-05-07T12:29:53;22.30;99.90
25753;DHT22;13600;50.816;4.416;2023-05-07T12:32:19;22.20;99.90
25753;DHT22;13600;50.816;4.416;2023-05-07T12:34:45;22.00;99.90
25753;DHT22;13600;50.816;4.416;2023-05-07T12:37:11;21.90;99.90
25753;DHT22;13600;50.816;4.416;2023-05-07T12:39:49;21.80;99.90
25753;DHT22;13600;50.816;4.416;2023-05-07T12:42:28;21.80;99.90
25753;DHT22;13600;50.816;4.416;2023-05-07T12:44:57;21.90;99.90
25753;DHT22;13600;50.816;4.416;2023-05-07T12:47:23;22.00;99.90
25753;DHT22;13600;50.816;4.416;2023-05-07T12:49:49;22.00;99.90
25753;DHT22;13600;50.816;4.416;2023-05-07T12:52:14;22.10;99.90
25753;DHT22;13600;50.816;4.416;2023-05-07T12:54:40;22.10;99.90
25753;DHT22;13600;50.816;4.416;2023-05-07T12:57:06;22.20;99.90
25753;DHT22;13600;50.816;4.416;2023-05-07T12:59:32;22.30;99.90
25753;DHT22;13600;50.816;4.416;2023-05-07T13:01:58;22.40;99.90
25753;DHT22;13600;50.816;4.416;2023-05-07T13:04:24;22.40;99.90
25753;DHT22;13600;50.816;4.416;2023-05-07T13:06:50;22.20;99.90
25753;DHT22;13600;50.816;4.416;2023-05-07T13:09:15;22.20;99.90
25753;DHT22;13600;50.816;4.416;2023-05-07T13:11:41;22.20;99.90
25753;DHT22;13600;50.816;4.416;2023-05-07T13:14:06;22.30;99.90
25753;DHT22;13600;50.816;4.416;2023-05-07T13:16:32;22.30;99.90
25753;DHT22;13600;50.816;4.416;2023-05-07T13:18:57;22.40;99.90
25753;DHT22;13600;50.816;4.416;2023-05-07T13:21:23;22.50;99.90
25753;DHT22;13600;50.816;4.416;2023-05-07T13:23:49;22.60;99.90
25753;DHT22;13600;50.816;4.416;2023-05-07T13:26:14;22.60;99.90
25753;DHT22;13600;50.816;4.416;2023-05-07T13:28:40;22.50;99.90
25753;DHT22;13600;50.816;4.416;2023-05-07T13:31:07;22.50;99.90
25753;DHT22;13600;50.816;4.416;2023-05-07T13:33:32;22.40;99.90
25753;DHT22;13600;50.816;4.416;2023-05-07T13:35:58;22.30;99.90
25753;DHT22;13600;50.816;4.416;2023-05-07T13:38:25;22.30;99.90
25753;DHT22;13600;50.816;4.416;2023-05-07T13:40:51;22.30;99.90
25753;DHT22;13600;50.816;4.416;2023-05-07T13:43:17;22.40;99.90
25753;DHT22;13600;50.816;4.416;2023-05-07T13:45:44;22.20;99.90
25753;DHT22;13600;50.816;4.416;2023-05-07T13:48:09;22.30;99.90
25753;DHT22;13600;50.816;4.416;2023-05-07T13:50:35;22.20;99.90
25753;DHT22;13600;50.816;4.416;2023-05-07T13:53:00;22.10;99.90
25753;DHT22;13600;50.816;4.416;2023-05-07T13:55:28;22.00;99.90
25753;DHT22;13600;50.816;4.416;2023-05-07T13:57:55;22.00;99.90
25753;DHT22;13600;50.816;4.416;2023-05-07T14:00:22;21.90;99.90
25753;DHT22;13600;50.816;4.416;2023-05-07T14:02:48;21.90;99.90
25753;DHT22;13600;50.816;4.416;2023-05-07T14:05:13;21.90;99.90
25753;DHT22;13600;50.816;4.416;2023-05-07T14:07:39;21.80;99.90
25753;DHT22;13600;50.816;4.416;2023-05-07T14:10:06;21.90;99.90
25753;DHT22;13600;50.816;4.416;2023-05-07T14:12:32;21.90;99.90
25753;DHT22;13600;50.816;4.416;2023-05-07T14:14:58;21.90;99.90
25753;DHT22;13600;50.816;4.416;2023-05-07T14:17:23;21.80;99.90
25753;DHT22;13600;50.816;4.416;2023-05-07T14:19:51;21.80;99.90
25753;DHT22;13600;50.816;4.416;2023-05-07T14:22:19;21.60;99.90
25753;DHT22;13600;50.816;4.416;2023-05-07T14:24:45;21.70;99.90
25753;DHT22;13600;50.816;4.416;2023-05-07T14:27:10;21.70;99.90
25753;DHT22;13600;50.816;4.416;2023-05-07T14:29:38;21.70;99.90
25753;DHT22;13600;50.816;4.416;2023-05-07T14:32:03;21.70;99.90
25753;DHT22;13600;50.816;4.416;2023-05-07T14:34:29;21.50;99.90
25753;DHT22;13600;50.816;4.416;2023-05-07T14:36:55;21.60;99.90
25753;DHT22;13600;50.816;4.416;2023-05-07T14:39:21;21.60;99.90
25753;DHT22;13600;50.816;4.416;2023-05-07T14:41:47;21.50;99.90
25753;DHT22;13600;50.816;4.416;2023-05-07T14:44:12;21.50;99.90
25753;DHT22;13600;50.816;4.416;2023-05-07T14:46:39;21.60;99.90
25753;DHT22;13600;50.816;4.416;2023-05-07T14:49:08;21.50;99.90
25753;DHT22;13600;50.816;4.416;2023-05-07T14:51:46;21.60;99.90
25753;DHT22;13600;50.816;4.416;2023-05-07T14:54:12;21.50;99.90
25753;DHT22;13600;50.816;4.416;2023-05-07T14:56:39;21.50;99.90
25753;DHT22;13600;50.816;4.416;2023-05-07T14:59:05;21.40;99.90
25753;DHT22;13600;50.816;4.416;2023-05-07T15:01:31;21.40;99.90
25753;DHT22;13600;50.816;4.416;2023-05-07T15:03:56;21.50;99.90
25753;DHT22;13600;50.816;4.416;2023-05-07T15:06:22;21.60;99.90
25753;DHT22;13600;50.816;4.416;2023-05-07T15:08:48;21.60;99.90
25753;DHT22;13600;50.816;4.416;2023-05-07T15:11:14;21.60;99.90
25753;DHT22;13600;50.816;4.416;2023-05-07T15:13:41;21.50;99.90
25753;DHT22;13600;50.816;4.416;2023-05-07T15:16:07;21.60;99.90
25753;DHT22;13600;50.816;4.416;2023-05-07T15:18:32;21.40;99.90
25753;DHT22;13600;50.816;4.416;2023-05-07T15:20:58;21.40;99.90
25753;DHT22;13600;50.816;4.416;2023-05-07T15:23:23;21.50;99.90
25753;DHT22;13600;50.816;4.416;2023-05-07T15:25:49;21.40;99.90
25753;DHT22;13600;50.816;4.416;2023-05-07T15:28:15;21.40;99.90
25753;DHT22;13600;50.816;4.416;2023-05-07T15:30:41;21.20;99.90
25753;DHT22;13600;50.816;4.416;2023-05-07T15:33:10;21.00;99.90
25753;DHT22;13600;50.816;4.416;2023-05-07T15:35:36;20.90;99.90
25753;DHT22;13600;50.816;4.416;2023-05-07T15:38:02;20.90;99.90